sensor_id;sensor_type;location;lat;lon;timestamp;P1;durP1;ratioP1;P2;durP2;ratioP2
48215;SDS011;34005;48.844;10.098;2023-05-07T00:53:40;3.70;;;3.35;;
48215;SDS011;34005;48.844;10.098;2023-05-07T00:56:08;4.60;;;4.03;;
48215;SDS011;34005;48.844;10.098;2023-05-07T00:58:36;5.75;;;4.30;;
48215;SDS011;34005;48.844;10.098;2023-05-07T01:01:04;5.90;;;4.05;;
48215;SDS011;34005;48.844;10.098;2023-05-07T01:03:32;4.68;;;3.88;;
48215;SDS011;34005;48.844;10.098;2023-05-07T02:05:25;3.95;;;3.55;;
48215;SDS011;34005;48.844;10.098;2023-05-07T02:07:53;6.53;;;4.03;;
48215;SDS011;34005;48.844;10.098;2023-05-07T02:10:21;4.55;;;3.47;;
48215;SDS011;34005;48.844;10.098;2023-05-07T02:12:48;3.97;;;3.58;;
48215;SDS011;34005;48.844;10.098;2023-05-07T02:15:16;4.88;;;3.45;;
48215;SDS011;34005;48.844;10.098;2023-05-07T02:17:57;6.70;;;3.85;;
48215;SDS011;34005;48.844;10.098;2023-05-07T02:20:27;6.95;;;5.00;;
48215;SDS011;34005;48.844;10.098;2023-05-07T02:22:55;4.68;;;4.13;;
48215;SDS011;34005;48.844;10.098;2023-05-07T02:25:23;3.75;;;3.45;;
48215;SDS011;34005;48.844;10.098;2023-05-07T02:27:50;4.95;;;4.43;;
48215;SDS011;34005;48.844;10.098;2023-05-07T02:30:18;6.65;;;4.88;;
48215;SDS011;34005;48.844;10.098;2023-05-07T02:32:47;6.60;;;5.15;;
48215;SDS011;34005;48.844;10.098;2023-05-07T02:35:15;5.55;;;4.95;;
48215;SDS011;34005;48.844;10.098;2023-05-07T02:37:44;6.22;;;5.00;;
48215;SDS011;34005;48.844;10.098;2023-05-07T02:40:11;8.35;;;5.70;;
48215;SDS011;34005;48.844;10.098;2023-05-07T02:42:39;5.78;;;4.88;;
48215;SDS011;34005;48.844;10.098;2023-05-07T02:45:07;5.60;;;4.60;;
48215;SDS011;34005;48.844;10.098;2023-05-07T02:47:36;5.55;;;4.97;;
48215;SDS011;34005;48.844;10.098;2023-05-07T02:50:04;7.30;;;4.57;;
48215;SDS011;34005;48.844;10.098;2023-05-07T02:52:32;6.10;;;4.35;;
48215;SDS011;34005;48.844;10.098;2023-05-07T02:55:01;5.90;;;4.90;;
48215;SDS011;34005;48.844;10.098;2023-05-07T02:57:29;6.93;;;4.53;;
48215;SDS011;34005;48.844;10.098;2023-05-07T02:59:57;5.65;;;4.60;;
48215;SDS011;34005;48.844;10.098;2023-05-07T03:02:25;5.55;;;4.78;;
48215;SDS011;34005;48.844;10.098;2023-05-07T03:04:52;5.30;;;4.32;;
48215;SDS011;34005;48.844;10.098;2023-05-07T03:07:20;4.93;;;4.43;;
48215;SDS011;34005;48.844;10.098;2023-05-07T03:09:47;6.15;;;4.47;;
48215;SDS011;34005;48.844;10.098;2023-05-07T03:12:16;5.10;;;4.60;;
48215;SDS011;34005;48.844;10.098;2023-05-07T03:14:44;4.57;;;4.15;;
48215;SDS011;34005;48.844;10.098;2023-05-07T03:17:11;4.68;;;3.63;;
48215;SDS011;34005;48.844;10.098;2023-05-07T03:19:39;4.22;;;3.80;;
48215;SDS011;34005;48.844;10.098;2023-05-07T03:22:06;4.57;;;4.18;;
48215;SDS011;34005;48.844;10.098;2023-05-07T03:24:34;3.20;;;2.85;;
48215;SDS011;34005;48.844;10.098;2023-05-07T03:27:02;6.78;;;3.70;;
48215;SDS011;34005;48.844;10.098;2023-05-07T03:29:30;3.65;;;3.20;;
48215;SDS011;34005;48.844;10.098;2023-05-07T03:31:58;3.55;;;2.67;;
48215;SDS011;34005;48.844;10.098;2023-05-07T03:34:26;3.72;;;2.33;;
48215;SDS011;34005;48.844;10.098;2023-05-07T03:36:53;5.93;;;2.50;;
48215;SDS011;34005;48.844;10.098;2023-05-07T03:39:22;2.90;;;2.15;;
48215;SDS011;34005;48.844;10.098;2023-05-07T03:41:49;4.57;;;2.50;;
48215;SDS011;34005;48.844;10.098;2023-05-07T03:44:17;2.25;;;2.05;;
48215;SDS011;34005;48.844;10.098;2023-05-07T03:46:46;5.50;;;2.47;;
48215;SDS011;34005;48.844;10.098;2023-05-07T03:49:13;2.47;;;1.90;;
48215;SDS011;34005;48.844;10.098;2023-05-07T03:51:41;3.22;;;2.03;;
48215;SDS011;34005;48.844;10.098;2023-05-07T03:54:08;2.10;;;1.90;;
48215;SDS011;34005;48.844;10.098;2023-05-07T03:56:36;3.95;;;2.40;;
48215;SDS011;34005;48.844;10.098;2023-05-07T03:59:03;2.60;;;2.40;;
48215;SDS011;34005;48.844;10.098;2023-05-07T04:01:31;2.75;;;2.50;;
48215;SDS011;34005;48.844;10.098;2023-05-07T04:04:00;2.10;;;1.95;;
48215;SDS011;34005;48.844;10.098;2023-05-07T04:06:28;2.42;;;1.95;;
48215;SDS011;34005;48.844;10.098;2023-05-07T04:08:55;4.13;;;2.30;;
48215;SDS011;34005;48.844;10.098;2023-05-07T04:11:23;6.00;;;2.20;;
48215;SDS011;34005;48.844;10.098;2023-05-07T04:13:51;2.38;;;2.05;;
48215;SDS011;34005;48.844;10.098;2023-05-07T04:16:18;3.00;;;2.70;;
48215;SDS011;34005;48.844;10.098;2023-05-07T04:18:46;2.55;;;2.35;;
48215;SDS011;34005;48.844;10.098;2023-05-07T04:21:15;6.07;;;2.97;;
48215;SDS011;34005;48.844;10.098;2023-05-07T04:23:43;4.85;;;3.15;;
48215;SDS011;34005;48.844;10.098;2023-05-07T04:26:11;2.97;;;2.78;;
48215;SDS011;34005;48.844;10.098;2023-05-07T04:28:39;3.78;;;3.10;;
48215;SDS011;34005;48.844;10.098;2023-05-07T04:31:06;2.92;;;2.53;;
48215;SDS011;34005;48.844;10.098;2023-05-07T04:33:34;4.05;;;2.35;;
48215;SDS011;34005;48.844;10.098;2023-05-07T04:36:02;2.47;;;2.28;;
48215;SDS011;34005;48.844;10.098;2023-05-07T04:38:32;2.92;;;2.70;;
48215;SDS011;34005;48.844;10.098;2023-05-07T04:41:02;3.00;;;2.70;;
48215;SDS011;34005;48.844;10.098;2023-05-07T04:43:31;2.92;;;2.67;;
48215;SDS011;34005;48.844;10.098;2023-05-07T04:45:59;3.80;;;2.60;;
48215;SDS011;34005;48.844;10.098;2023-05-07T04:48:26;3.38;;;2.50;;
48215;SDS011;34005;48.844;10.098;2023-05-07T04:50:55;3.40;;;3.10;;
48215;SDS011;34005;48.844;10.098;2023-05-07T04:53:22;3.40;;;3.10;;
48215;SDS011;34005;48.844;10.098;2023-05-07T04:55:56;3.10;;;2.75;;
48215;SDS011;34005;48.844;10.098;2023-05-07T04:58:24;3.80;;;2.70;;
48215;SDS011;34005;48.844;10.098;2023-05-07T05:00:52;3.10;;;2.60;;
48215;SDS011;34005;48.844;10.098;2023-05-07T05:03:19;3.42;;;2.63;;
48215;SDS011;34005;48.844;10.098;2023-05-07T05:11:11;4.20;;;3.05;;
48215;SDS011;34005;48.844;10.098;2023-05-07T05:13:38;2.65;;;2.45;;
48215;SDS011;34005;48.844;10.098;2023-05-07T05:16:06;3.95;;;2.50;;
48215;SDS011;34005;48.844;10.098;2023-05-07T05:18:34;4.65;;;2.72;;
48215;SDS011;34005;48.844;10.098;2023-05-07T05:21:02;4.20;;;2.60;;
48215;SDS011;34005;48.844;10.098;2023-05-07T05:23:30;3.72;;;2.85;;
48215;SDS011;34005;48.844;10.098;2023-05-07T05:25:57;2.90;;;2.30;;
48215;SDS011;34005;48.844;10.098;2023-05-07T05:28:26;2.60;;;2.40;;
48215;SDS011;34005;48.844;10.098;2023-05-07T05:30:55;3.88;;;3.38;;
48215;SDS011;34005;48.844;10.098;2023-05-07T05:33:22;3.20;;;2.72;;
48215;SDS011;34005;48.844;10.098;2023-05-07T05:35:50;3.45;;;2.80;;
48215;SDS011;34005;48.844;10.098;2023-05-07T05:38:17;4.88;;;2.78;;
48215;SDS011;34005;48.844;10.098;2023-05-07T05:40:47;4.40;;;3.35;;
48215;SDS011;34005;48.844;10.098;2023-05-07T05:43:14;2.97;;;2.47;;
48215;SDS011;34005;48.844;10.098;2023-05-07T05:45:43;3.97;;;2.75;;
48215;SDS011;34005;48.844;10.098;2023-05-07T05:48:11;3.38;;;2.83;;
48215;SDS011;34005;48.844;10.098;2023-05-07T05:50:38;3.30;;;3.00;;
48215;SDS011;34005;48.844;10.098;2023-05-07T05:53:06;6.00;;;2.88;;
48215;SDS011;34005;48.844;10.098;2023-05-07T05:55:34;2.50;;;2.30;;
48215;SDS011;34005;48.844;10.098;2023-05-07T05:58:02;9.65;;;3.20;;
48215;SDS011;34005;48.844;10.098;2023-05-07T06:00:29;3.15;;;2.85;;
48215;SDS011;34005;48.844;10.098;2023-05-07T06:02:58;5.00;;;3.13;;
48215;SDS011;34005;48.844;10.098;2023-05-07T06:05:26;3.70;;;3.40;;
48215;SDS011;34005;48.844;10.098;2023-05-07T06:07:54;3.47;;;3.00;;
48215;SDS011;34005;48.844;10.098;2023-05-07T06:10:21;3.47;;;3.17;;
48215;SDS011;34005;48.844;10.098;2023-05-07T06:12:50;4.47;;;2.95;;
48215;SDS011;34005;48.844;10.098;2023-05-07T06:15:18;3.30;;;2.83;;
48215;SDS011;34005;48.844;10.098;2023-05-07T06:17:45;5.22;;;3.15;;
48215;SDS011;34005;48.844;10.098;2023-05-07T06:20:14;2.90;;;2.60;;
48215;SDS011;34005;48.844;10.098;2023-05-07T06:22:42;4.03;;;2.92;;
48215;SDS011;34005;48.844;10.098;2023-05-07T06:25:10;3.10;;;2.67;;
48215;SDS011;34005;48.844;10.098;2023-05-07T06:27:38;3.65;;;2.88;;
48215;SDS011;34005;48.844;10.098;2023-05-07T06:30:06;4.82;;;3.38;;
48215;SDS011;34005;48.844;10.098;2023-05-07T06:32:34;4.15;;;3.70;;
48215;SDS011;34005;48.844;10.098;2023-05-07T06:35:03;3.33;;;3.00;;
48215;SDS011;34005;48.844;10.098;2023-05-07T06:37:33;3.88;;;3.40;;
48215;SDS011;34005;48.844;10.098;2023-05-07T06:40:00;4.13;;;3.00;;
48215;SDS011;34005;48.844;10.098;2023-05-07T06:42:28;5.80;;;3.65;;
48215;SDS011;34005;48.844;10.098;2023-05-07T06:44:55;3.78;;;3.47;;
48215;SDS011;34005;48.844;10.098;2023-05-07T06:47:23;4.88;;;3.20;;
48215;SDS011;34005;48.844;10.098;2023-05-07T06:49:51;3.72;;;3.20;;
48215;SDS011;34005;48.844;10.098;2023-05-07T06:52:21;3.63;;;3.17;;
48215;SDS011;34005;48.844;10.098;2023-05-07T06:54:50;3.67;;;2.78;;
48215;SDS011;34005;48.844;10.098;2023-05-07T06:57:18;2.88;;;2.63;;
48215;SDS011;34005;48.844;10.098;2023-05-07T06:59:46;4.90;;;3.03;;
48215;SDS011;34005;48.844;10.098;2023-05-07T07:02:13;5.15;;;2.20;;
48215;SDS011;34005;48.844;10.098;2023-05-07T07:04:43;2.90;;;2.60;;
48215;SDS011;34005;48.844;10.098;2023-05-07T07:07:11;3.15;;;2.75;;
48215;SDS011;34005;48.844;10.098;2023-05-07T07:09:39;3.15;;;2.63;;
48215;SDS011;34005;48.844;10.098;2023-05-07T07:12:07;4.32;;;2.42;;
48215;SDS011;34005;48.844;10.098;2023-05-07T07:14:35;2.42;;;2.13;;
48215;SDS011;34005;48.844;10.098;2023-05-07T07:17:03;3.67;;;2.13;;
48215;SDS011;34005;48.844;10.098;2023-05-07T07:19:31;2.97;;;2.55;;
48215;SDS011;34005;48.844;10.098;2023-05-07T07:21:59;5.25;;;2.05;;
48215;SDS011;34005;48.844;10.098;2023-05-07T07:24:26;2.75;;;2.05;;
48215;SDS011;34005;48.844;10.098;2023-05-07T07:26:54;2.60;;;1.92;;
48215;SDS011;34005;48.844;10.098;2023-05-07T07:29:23;3.38;;;1.98;;
48215;SDS011;34005;48.844;10.098;2023-05-07T07:31:52;2.72;;;1.73;;
48215;SDS011;34005;48.844;10.098;2023-05-07T07:34:20;3.22;;;1.98;;
48215;SDS011;34005;48.844;10.098;2023-05-07T07:36:47;1.77;;;1.63;;
48215;SDS011;34005;48.844;10.098;2023-05-07T07:39:15;2.10;;;1.90;;
48215;SDS011;34005;48.844;10.098;2023-05-07T07:41:43;3.17;;;1.80;;
48215;SDS011;34005;48.844;10.098;2023-05-07T07:44:10;3.97;;;2.38;;
48215;SDS011;34005;48.844;10.098;2023-05-07T07:46:43;1.90;;;1.80;;
48215;SDS011;34005;48.844;10.098;2023-05-07T07:49:10;4.10;;;1.77;;
48215;SDS011;34005;48.844;10.098;2023-05-07T07:51:38;3.08;;;1.60;;
48215;SDS011;34005;48.844;10.098;2023-05-07T07:54:05;1.60;;;1.50;;
48215;SDS011;34005;48.844;10.098;2023-05-07T07:56:33;1.65;;;1.55;;
48215;SDS011;34005;48.844;10.098;2023-05-07T07:59:01;2.33;;;1.27;;
48215;SDS011;34005;48.844;10.098;2023-05-07T08:01:29;1.15;;;1.05;;
48215;SDS011;34005;48.844;10.098;2023-05-07T08:03:58;1.40;;;1.30;;
48215;SDS011;34005;48.844;10.098;2023-05-07T08:06:26;0.98;;;0.88;;
48215;SDS011;34005;48.844;10.098;2023-05-07T08:08:54;2.25;;;1.02;;
48215;SDS011;34005;48.844;10.098;2023-05-07T08:11:22;1.30;;;0.80;;
48215;SDS011;34005;48.844;10.098;2023-05-07T08:13:49;1.02;;;0.93;;
48215;SDS011;34005;48.844;10.098;2023-05-07T08:16:17;2.22;;;1.10;;
48215;SDS011;34005;48.844;10.098;2023-05-07T08:18:46;1.20;;;1.10;;
48215;SDS011;34005;48.844;10.098;2023-05-07T08:21:15;1.08;;;1.05;;
48215;SDS011;34005;48.844;10.098;2023-05-07T08:23:42;0.98;;;0.90;;
48215;SDS011;34005;48.844;10.098;2023-05-07T08:26:10;1.23;;;1.13;;
48215;SDS011;34005;48.844;10.098;2023-05-07T08:28:38;2.55;;;1.10;;
48215;SDS011;34005;48.844;10.098;2023-05-07T08:31:06;1.30;;;1.20;;
48215;SDS011;34005;48.844;10.098;2023-05-07T08:33:33;1.30;;;1.20;;
48215;SDS011;34005;48.844;10.098;2023-05-07T08:36:01;1.38;;;1.13;;
48215;SDS011;34005;48.844;10.098;2023-05-07T08:38:30;1.20;;;0.93;;
48215;SDS011;34005;48.844;10.098;2023-05-07T08:40:58;2.58;;;1.15;;
48215;SDS011;34005;48.844;10.098;2023-05-07T08:43:26;2.00;;;1.40;;
48215;SDS011;34005;48.844;10.098;2023-05-07T08:45:54;2.13;;;1.30;;
48215;SDS011;34005;48.844;10.098;2023-05-07T08:48:24;1.60;;;0.90;;
48215;SDS011;34005;48.844;10.098;2023-05-07T08:50:52;1.13;;;1.00;;
48215;SDS011;34005;48.844;10.098;2023-05-07T08:53:20;0.95;;;0.85;;
48215;SDS011;34005;48.844;10.098;2023-05-07T08:55:49;1.50;;;0.93;;
48215;SDS011;34005;48.844;10.098;2023-05-07T08:58:18;2.28;;;0.88;;
48215;SDS011;34005;48.844;10.098;2023-05-07T09:00:45;1.98;;;0.80;;
48215;SDS011;34005;48.844;10.098;2023-05-07T09:03:14;2.65;;;0.95;;
48215;SDS011;34005;48.844;10.098;2023-05-07T09:05:42;1.65;;;0.90;;
48215;SDS011;34005;48.844;10.098;2023-05-07T09:08:14;0.93;;;0.93;;
48215;SDS011;34005;48.844;10.098;2023-05-07T09:10:42;1.45;;;0.80;;
48215;SDS011;34005;48.844;10.098;2023-05-07T09:13:11;1.38;;;0.90;;
48215;SDS011;34005;48.844;10.098;2023-05-07T09:15:40;1.92;;;0.95;;
48215;SDS011;34005;48.844;10.098;2023-05-07T09:18:08;1.70;;;1.00;;
48215;SDS011;34005;48.844;10.098;2023-05-07T09:20:36;2.33;;;0.80;;
48215;SDS011;34005;48.844;10.098;2023-05-07T09:23:04;1.40;;;0.95;;
48215;SDS011;34005;48.844;10.098;2023-05-07T09:25:31;1.27;;;0.80;;
48215;SDS011;34005;48.844;10.098;2023-05-07T09:28:00;1.55;;;0.50;;
48215;SDS011;34005;48.844;10.098;2023-05-07T09:30:30;0.68;;;0.57;;
48215;SDS011;34005;48.844;10.098;2023-05-07T09:32:59;1.08;;;0.90;;
48215;SDS011;34005;48.844;10.098;2023-05-07T09:35:29;3.45;;;0.93;;
48215;SDS011;34005;48.844;10.098;2023-05-07T09:37:58;1.85;;;0.70;;
48215;SDS011;34005;48.844;10.098;2023-05-07T09:40:29;0.85;;;0.68;;
48215;SDS011;34005;48.844;10.098;2023-05-07T09:43:07;0.70;;;0.65;;
48215;SDS011;34005;48.844;10.098;2023-05-07T09:45:37;1.60;;;0.73;;
48215;SDS011;34005;48.844;10.098;2023-05-07T09:48:05;1.08;;;0.80;;
48215;SDS011;34005;48.844;10.098;2023-05-07T09:50:35;1.83;;;0.98;;
48215;SDS011;34005;48.844;10.098;2023-05-07T09:53:04;1.33;;;0.88;;
48215;SDS011;34005;48.844;10.098;2023-05-07T09:55:31;2.15;;;0.80;;
48215;SDS011;34005;48.844;10.098;2023-05-07T09:57:59;1.02;;;0.90;;
48215;SDS011;34005;48.844;10.098;2023-05-07T10:00:28;1.63;;;1.33;;
48215;SDS011;34005;48.844;10.098;2023-05-07T10:02:58;1.40;;;0.73;;
48215;SDS011;34005;48.844;10.098;2023-05-07T10:05:28;2.10;;;1.25;;
48215;SDS011;34005;48.844;10.098;2023-05-07T10:07:56;0.90;;;0.90;;
48215;SDS011;34005;48.844;10.098;2023-05-07T10:10:24;1.02;;;0.93;;
48215;SDS011;34005;48.844;10.098;2023-05-07T10:12:52;1.80;;;0.90;;
48215;SDS011;34005;48.844;10.098;2023-05-07T10:15:21;1.27;;;0.73;;
48215;SDS011;34005;48.844;10.098;2023-05-07T10:17:50;1.10;;;1.00;;
48215;SDS011;34005;48.844;10.098;2023-05-07T10:20:23;1.83;;;0.73;;
48215;SDS011;34005;48.844;10.098;2023-05-07T10:22:52;0.88;;;0.52;;
48215;SDS011;34005;48.844;10.098;2023-05-07T10:25:23;2.15;;;1.15;;
48215;SDS011;34005;48.844;10.098;2023-05-07T10:27:56;2.90;;;0.95;;
48215;SDS011;34005;48.844;10.098;2023-05-07T10:30:30;1.30;;;1.20;;
48215;SDS011;34005;48.844;10.098;2023-05-07T10:33:08;3.35;;;1.38;;
48215;SDS011;34005;48.844;10.098;2023-05-07T10:35:39;1.08;;;0.70;;
48215;SDS011;34005;48.844;10.098;2023-05-07T10:38:08;1.83;;;1.20;;
48215;SDS011;34005;48.844;10.098;2023-05-07T10:40:37;0.82;;;0.82;;
48215;SDS011;34005;48.844;10.098;2023-05-07T10:43:04;3.03;;;0.93;;
48215;SDS011;34005;48.844;10.098;2023-05-07T10:45:36;2.05;;;0.60;;
48215;SDS011;34005;48.844;10.098;2023-05-07T10:48:07;2.83;;;0.93;;
48215;SDS011;34005;48.844;10.098;2023-05-07T10:51:17;1.15;;;0.90;;
48215;SDS011;34005;48.844;10.098;2023-05-07T10:53:46;1.55;;;1.00;;
48215;SDS011;34005;48.844;10.098;2023-05-07T10:56:24;1.20;;;1.13;;
48215;SDS011;34005;48.844;10.098;2023-05-07T10:58:53;0.90;;;0.90;;
48215;SDS011;34005;48.844;10.098;2023-05-07T11:04:17;1.52;;;1.17;;
48215;SDS011;34005;48.844;10.098;2023-05-07T11:07:13;1.83;;;1.00;;
48215;SDS011;34005;48.844;10.098;2023-05-07T11:09:57;1.20;;;0.80;;
48215;SDS011;34005;48.844;10.098;2023-05-07T11:12:48;4.15;;;1.98;;
48215;SDS011;34005;48.844;10.098;2023-05-07T11:18:15;4.60;;;3.33;;
48215;SDS011;34005;48.844;10.098;2023-05-07T11:20:45;3.05;;;1.65;;
48215;SDS011;34005;48.844;10.098;2023-05-07T11:29:21;2.00;;;1.40;;
48215;SDS011;34005;48.844;10.098;2023-05-07T11:31:49;3.33;;;2.95;;
48215;SDS011;34005;48.844;10.098;2023-05-07T11:34:20;3.85;;;2.53;;
48215;SDS011;34005;48.844;10.098;2023-05-07T11:39:24;1.65;;;1.10;;
48215;SDS011;34005;48.844;10.098;2023-05-07T11:41:57;1.40;;;0.70;;
48215;SDS011;34005;48.844;10.098;2023-05-07T11:44:25;1.67;;;0.90;;
48215;SDS011;34005;48.844;10.098;2023-05-07T11:47:06;1.92;;;0.88;;
48215;SDS011;34005;48.844;10.098;2023-05-07T11:49:34;1.38;;;0.90;;
48215;SDS011;34005;48.844;10.098;2023-05-07T11:52:01;1.10;;;1.00;;
48215;SDS011;34005;48.844;10.098;2023-05-07T11:54:34;1.95;;;1.00;;
48215;SDS011;34005;48.844;10.098;2023-05-07T11:57:04;1.02;;;0.90;;
48215;SDS011;34005;48.844;10.098;2023-05-07T11:59:37;2.42;;;0.85;;
48215;SDS011;34005;48.844;10.098;2023-05-07T12:02:06;1.20;;;0.80;;
48215;SDS011;34005;48.844;10.098;2023-05-07T12:04:34;1.40;;;0.75;;
48215;SDS011;34005;48.844;10.098;2023-05-07T12:07:01;1.70;;;0.70;;
48215;SDS011;34005;48.844;10.098;2023-05-07T12:09:29;0.98;;;0.82;;
48215;SDS011;34005;48.844;10.098;2023-05-07T12:11:56;0.60;;;0.60;;
48215;SDS011;34005;48.844;10.098;2023-05-07T12:14:28;7.53;;;0.80;;
48215;SDS011;34005;48.844;10.098;2023-05-07T12:16:56;2.50;;;0.90;;
48215;SDS011;34005;48.844;10.098;2023-05-07T12:19:24;2.30;;;0.63;;
48215;SDS011;34005;48.844;10.098;2023-05-07T12:21:52;1.05;;;0.77;;
48215;SDS011;34005;48.844;10.098;2023-05-07T12:24:19;1.77;;;0.93;;
48215;SDS011;34005;48.844;10.098;2023-05-07T12:26:47;1.13;;;0.65;;
48215;SDS011;34005;48.844;10.098;2023-05-07T12:29:15;1.02;;;0.90;;
48215;SDS011;34005;48.844;10.098;2023-05-07T12:31:44;2.10;;;0.80;;
48215;SDS011;34005;48.844;10.098;2023-05-07T12:34:11;1.50;;;0.70;;
48215;SDS011;34005;48.844;10.098;2023-05-07T12:36:39;1.27;;;1.00;;
48215;SDS011;34005;48.844;10.098;2023-05-07T12:39:07;4.15;;;1.25;;
48215;SDS011;34005;48.844;10.098;2023-05-07T12:41:36;1.33;;;1.00;;
48215;SDS011;34005;48.844;10.098;2023-05-07T12:44:19;1.60;;;1.50;;
48215;SDS011;34005;48.844;10.098;2023-05-07T12:46:50;1.92;;;1.00;;
48215;SDS011;34005;48.844;10.098;2023-05-07T12:49:18;1.50;;;0.80;;
48215;SDS011;34005;48.844;10.098;2023-05-07T12:51:50;0.93;;;0.57;;
48215;SDS011;34005;48.844;10.098;2023-05-07T12:54:27;0.60;;;0.60;;
48215;SDS011;34005;48.844;10.098;2023-05-07T12:56:59;2.15;;;0.90;;
48215;SDS011;34005;48.844;10.098;2023-05-07T12:59:31;0.70;;;0.70;;
48215;SDS011;34005;48.844;10.098;2023-05-07T13:02:01;2.05;;;0.93;;
48215;SDS011;34005;48.844;10.098;2023-05-07T13:04:28;3.03;;;0.65;;
48215;SDS011;34005;48.844;10.098;2023-05-07T13:06:56;4.22;;;1.17;;
48215;SDS011;34005;48.844;10.098;2023-05-07T13:09:23;1.80;;;0.90;;
48215;SDS011;34005;48.844;10.098;2023-05-07T13:11:51;0.63;;;0.63;;
48215;SDS011;34005;48.844;10.098;2023-05-07T13:14:18;0.80;;;0.70;;
48215;SDS011;34005;48.844;10.098;2023-05-07T13:16:47;0.93;;;0.73;;
48215;SDS011;34005;48.844;10.098;2023-05-07T13:19:16;2.10;;;2.00;;
48215;SDS011;34005;48.844;10.098;2023-05-07T13:21:43;0.80;;;0.80;;
48215;SDS011;34005;48.844;10.098;2023-05-07T13:24:11;3.92;;;1.50;;
48215;SDS011;34005;48.844;10.098;2023-05-07T13:26:39;6.45;;;5.25;;
48215;SDS011;34005;48.844;10.098;2023-05-07T13:29:06;4.22;;;1.30;;
48215;SDS011;34005;48.844;10.098;2023-05-07T13:31:34;2.60;;;1.98;;
48215;SDS011;34005;48.844;10.098;2023-05-07T13:34:01;15.27;;;14.15;;
48215;SDS011;34005;48.844;10.098;2023-05-07T13:36:30;7.93;;;6.53;;
48215;SDS011;34005;48.844;10.098;2023-05-07T13:41:29;1.75;;;1.55;;
48215;SDS011;34005;48.844;10.098;2023-05-07T13:43:56;0.85;;;0.85;;
48215;SDS011;34005;48.844;10.098;2023-05-07T13:46:24;2.05;;;1.70;;
48215;SDS011;34005;48.844;10.098;2023-05-07T13:48:51;2.17;;;1.50;;
48215;SDS011;34005;48.844;10.098;2023-05-07T13:51:19;1.38;;;1.27;;
48215;SDS011;34005;48.844;10.098;2023-05-07T13:53:49;1.13;;;1.02;;
48215;SDS011;34005;48.844;10.098;2023-05-07T13:56:16;1.65;;;1.25;;
48215;SDS011;34005;48.844;10.098;2023-05-07T13:58:44;1.58;;;1.17;;
48215;SDS011;34005;48.844;10.098;2023-05-07T14:01:25;1.60;;;1.10;;
48215;SDS011;34005;48.844;10.098;2023-05-07T14:03:53;1.42;;;1.02;;
48215;SDS011;34005;48.844;10.098;2023-05-07T14:06:21;3.67;;;1.10;;
48215;SDS011;34005;48.844;10.098;2023-05-07T14:08:51;1.50;;;1.10;;
48215;SDS011;34005;48.844;10.098;2023-05-07T14:11:19;4.18;;;1.45;;
48215;SDS011;34005;48.844;10.098;2023-05-07T14:13:47;3.35;;;1.15;;
48215;SDS011;34005;48.844;10.098;2023-05-07T14:16:15;1.30;;;1.27;;
48215;SDS011;34005;48.844;10.098;2023-05-07T14:18:42;2.53;;;1.17;;
48215;SDS011;34005;48.844;10.098;2023-05-07T14:21:10;1.30;;;1.20;;
48215;SDS011;34005;48.844;10.098;2023-05-07T14:23:38;7.97;;;7.20;;
48215;SDS011;34005;48.844;10.098;2023-05-07T14:26:07;5.93;;;4.95;;
48215;SDS011;34005;48.844;10.098;2023-05-07T14:28:34;3.72;;;3.33;;
48215;SDS011;34005;48.844;10.098;2023-05-07T14:31:05;19.17;;;13.00;;
48215;SDS011;34005;48.844;10.098;2023-05-07T14:33:33;18.48;;;12.07;;
48215;SDS011;34005;48.844;10.098;2023-05-07T14:36:01;11.07;;;7.85;;
48215;SDS011;34005;48.844;10.098;2023-05-07T14:38:29;46.60;;;29.65;;
48215;SDS011;34005;48.844;10.098;2023-05-07T14:40:59;20.23;;;11.55;;
48215;SDS011;34005;48.844;10.098;2023-05-07T14:43:29;21.30;;;14.88;;
48215;SDS011;34005;48.844;10.098;2023-05-07T14:45:57;29.95;;;22.05;;
48215;SDS011;34005;48.844;10.098;2023-05-07T14:48:26;49.03;;;39.72;;
48215;SDS011;34005;48.844;10.098;2023-05-07T14:50:54;42.22;;;32.67;;
48215;SDS011;34005;48.844;10.098;2023-05-07T14:53:22;41.92;;;26.65;;
48215;SDS011;34005;48.844;10.098;2023-05-07T14:55:50;47.17;;;41.22;;
48215;SDS011;34005;48.844;10.098;2023-05-07T14:58:18;48.95;;;43.60;;
48215;SDS011;34005;48.844;10.098;2023-05-07T15:00:47;21.48;;;17.15;;
48215;SDS011;34005;48.844;10.098;2023-05-07T15:03:14;47.13;;;42.97;;
48215;SDS011;34005;48.844;10.098;2023-05-07T15:05:42;12.98;;;9.27;;
48215;SDS011;34005;48.844;10.098;2023-05-07T15:08:10;61.38;;;51.40;;
48215;SDS011;34005;48.844;10.098;2023-05-07T15:10:37;34.72;;;28.67;;
48215;SDS011;34005;48.844;10.098;2023-05-07T15:13:07;4.88;;;4.38;;
48215;SDS011;34005;48.844;10.098;2023-05-07T15:18:08;1.70;;;1.55;;
48215;SDS011;34005;48.844;10.098;2023-05-07T15:20:36;3.67;;;1.25;;
48215;SDS011;34005;48.844;10.098;2023-05-07T15:23:04;2.88;;;1.40;;
48215;SDS011;34005;48.844;10.098;2023-05-07T15:25:36;3.08;;;1.20;;
48215;SDS011;34005;48.844;10.098;2023-05-07T15:28:04;1.73;;;1.60;;
48215;SDS011;34005;48.844;10.098;2023-05-07T15:30:32;1.95;;;1.60;;
48215;SDS011;34005;48.844;10.098;2023-05-07T15:33:00;2.97;;;1.90;;
48215;SDS011;34005;48.844;10.098;2023-05-07T15:35:30;1.77;;;1.52;;
48215;SDS011;34005;48.844;10.098;2023-05-07T15:37:57;1.77;;;1.50;;
48215;SDS011;34005;48.844;10.098;2023-05-07T15:40:25;1.90;;;1.80;;
48215;SDS011;34005;48.844;10.098;2023-05-07T15:42:54;2.35;;;1.52;;
48215;SDS011;34005;48.844;10.098;2023-05-07T15:45:22;2.15;;;1.48;;
48215;SDS011;34005;48.844;10.098;2023-05-07T15:47:51;1.95;;;1.38;;
48215;SDS011;34005;48.844;10.098;2023-05-07T15:50:18;2.35;;;1.25;;
48215;SDS011;34005;48.844;10.098;2023-05-07T15:52:49;1.42;;;1.30;;
48215;SDS011;34005;48.844;10.098;2023-05-07T15:55:16;2.38;;;1.40;;
48215;SDS011;34005;48.844;10.098;2023-05-07T15:57:44;3.08;;;1.10;;
48215;SDS011;34005;48.844;10.098;2023-05-07T16:00:13;1.92;;;0.90;;
48215;SDS011;34005;48.844;10.098;2023-05-07T16:02:42;2.17;;;1.38;;
48215;SDS011;34005;48.844;10.098;2023-05-07T16:05:10;1.73;;;1.08;;
48215;SDS011;34005;48.844;10.098;2023-05-07T16:07:39;1.23;;;0.95;;
48215;SDS011;34005;48.844;10.098;2023-05-07T16:10:10;1.10;;;1.00;;
48215;SDS011;34005;48.844;10.098;2023-05-07T16:12:38;1.55;;;1.00;;
48215;SDS011;34005;48.844;10.098;2023-05-07T16:15:06;2.97;;;1.45;;
48215;SDS011;34005;48.844;10.098;2023-05-07T16:17:34;1.52;;;1.08;;
48215;SDS011;34005;48.844;10.098;2023-05-07T16:20:02;0.90;;;0.73;;
48215;SDS011;34005;48.844;10.098;2023-05-07T16:22:31;1.52;;;1.20;;
48215;SDS011;34005;48.844;10.098;2023-05-07T16:24:59;2.33;;;1.00;;
48215;SDS011;34005;48.844;10.098;2023-05-07T16:27:28;2.25;;;0.68;;
48215;SDS011;34005;48.844;10.098;2023-05-07T16:29:56;1.25;;;1.05;;
48215;SDS011;34005;48.844;10.098;2023-05-07T16:32:24;3.95;;;1.23;;
48215;SDS011;34005;48.844;10.098;2023-05-07T16:34:53;0.80;;;0.70;;
48215;SDS011;34005;48.844;10.098;2023-05-07T16:37:21;2.33;;;1.00;;
48215;SDS011;34005;48.844;10.098;2023-05-07T16:39:48;1.70;;;0.93;;
48215;SDS011;34005;48.844;10.098;2023-05-07T16:42:17;2.35;;;1.13;;
48215;SDS011;34005;48.844;10.098;2023-05-07T16:44:46;1.35;;;1.08;;
48215;SDS011;34005;48.844;10.098;2023-05-07T16:47:13;1.85;;;1.00;;
48215;SDS011;34005;48.844;10.098;2023-05-07T16:49:41;1.00;;;0.82;;
48215;SDS011;34005;48.844;10.098;2023-05-07T16:52:09;3.80;;;0.95;;
48215;SDS011;34005;48.844;10.098;2023-05-07T16:54:36;2.83;;;0.82;;
48215;SDS011;34005;48.844;10.098;2023-05-07T16:57:04;1.73;;;0.80;;
48215;SDS011;34005;48.844;10.098;2023-05-07T16:59:31;1.20;;;0.90;;